EmailTwitter


Observations de surface / Canada / CYYZ (71624)

Régions: Québec | Canada | États-Unis | Europe | France | UK | Ailleurs
Station
Affichage
Infos & localisation pour CYYZ (71624) | Aide pour décoder les METARs

Observations prises le 2018-02-20 à 14H31 UTC à TORONTO A, ON (CYYZ)

Etat du ciel: couvert.

Obstacle(s) à la visibilité: faible pluie et brume.

Température: 8.0 Celsius

Point de rosée: 7.0 Celsius

Humidité relative: 93%

Vents: Sud à 6 km/h ou 3 noeuds.

Pression au niveau moyen de la mer: 101.69 kilopascals.

Calage altimétrique: 101.62 kilopascals ou 30.01 pouces de mercure.

Visibilité horizontale: 6.00 milles terrestres ou 9.60 kilomètres.

Hauteur du plafond: 396 mètres ( 1300 pieds ).

Observation METAR:

CYYZ 201431Z 17003KT 150V220 6SM -RA BR OVC013 08/07 A3001 RMK NS8 SLP169=